createdAt,value
2023-05-19T00:00:30.769Z,7.69
2023-05-19T00:02:58.321Z,7.74
2023-05-19T00:05:25.487Z,7.65
2023-05-19T00:07:54.977Z,7.66
2023-05-19T00:10:22.495Z,7.68
2023-05-19T00:12:53.191Z,7.67
2023-05-19T00:15:21.261Z,7.66
2023-05-19T00:17:48.039Z,7.61
2023-05-19T00:20:17.869Z,7.67
2023-05-19T00:22:44.660Z,7.76
2023-05-19T00:25:11.451Z,7.81
2023-05-19T00:27:38.283Z,7.70
2023-05-19T00:30:08.261Z,7.68
2023-05-19T00:32:35.406Z,7.87
2023-05-19T00:35:02.329Z,7.74
2023-05-19T00:37:31.827Z,7.71
2023-05-19T00:40:00.348Z,7.67
2023-05-19T00:42:27.297Z,7.66
2023-05-19T00:44:54.172Z,7.66
2023-05-19T00:47:22.396Z,7.66
2023-05-19T00:49:49.281Z,7.78
2023-05-19T00:52:16.334Z,7.77
2023-05-19T00:54:44.306Z,7.69
2023-05-19T00:57:11.572Z,7.61
2023-05-19T00:59:38.875Z,7.65
2023-05-19T01:02:05.752Z,7.57
2023-05-19T01:04:36.647Z,7.70
2023-05-19T01:07:04.484Z,7.73
2023-05-19T01:09:31.890Z,7.60
2023-05-19T01:11:59.260Z,7.58
2023-05-19T01:14:26.395Z,7.57
2023-05-19T01:17:00.581Z,7.56
2023-05-19T01:19:52.823Z,7.54
2023-05-19T01:22:32.214Z,7.53
2023-05-19T01:25:20.292Z,7.45
2023-05-19T01:28:23.027Z,7.26
2023-05-19T01:30:56.304Z,7.33
2023-05-19T01:33:24.807Z,7.37
2023-05-19T01:35:54.242Z,7.42
2023-05-19T01:38:21.984Z,7.44
2023-05-19T01:40:50.029Z,7.39
2023-05-19T01:43:20.530Z,7.47
2023-05-19T01:45:48.823Z,7.47
2023-05-19T01:48:18.208Z,7.52
2023-05-19T01:50:45.655Z,7.51
2023-05-19T01:53:12.603Z,7.45
2023-05-19T01:55:44.337Z,7.46
2023-05-19T01:58:18.571Z,7.31
2023-05-19T02:00:51.371Z,7.35
2023-05-19T02:03:30.256Z,7.39
2023-05-19T02:06:07.117Z,7.40
2023-05-19T02:08:41.706Z,7.39
2023-05-19T02:11:19.636Z,7.36
2023-05-19T02:13:50.345Z,7.39
2023-05-19T02:16:17.798Z,7.21
2023-05-19T02:18:46.338Z,7.21
2023-05-19T02:21:13.172Z,7.31
2023-05-19T02:23:40.093Z,7.28
2023-05-19T02:26:08.542Z,7.24
2023-05-19T02:28:35.355Z,7.25
2023-05-19T02:31:02.370Z,7.24
2023-05-19T02:33:29.130Z,7.11
2023-05-19T02:35:58.436Z,7.01
2023-05-19T02:38:25.342Z,7.07
2023-05-19T02:40:52.455Z,7.16
2023-05-19T02:43:19.443Z,7.27
2023-05-19T02:45:46.282Z,7.27
2023-05-19T02:48:13.143Z,7.14
2023-05-19T02:50:40.122Z,7.03
2023-05-19T02:53:08.431Z,7.03
2023-05-19T02:55:35.304Z,6.95
2023-05-19T02:58:02.137Z,6.95
2023-05-19T03:00:29.044Z,7.05
2023-05-19T03:02:55.959Z,7.17
2023-05-19T03:05:23.036Z,7.07
2023-05-19T03:07:49.944Z,7.07
2023-05-19T03:10:18.386Z,7.00
2023-05-19T03:12:45.153Z,7.02
2023-05-19T03:15:11.950Z,7.00
2023-05-19T03:17:38.865Z,7.11
2023-05-19T03:20:07.672Z,7.11
2023-05-19T03:22:35.002Z,7.11
2023-05-19T03:25:02.531Z,7.17
2023-05-19T03:27:30.992Z,7.18
2023-05-19T03:29:57.971Z,7.18
2023-05-19T03:32:25.484Z,7.29
2023-05-19T03:34:52.827Z,7.19
2023-05-19T03:37:19.753Z,7.24
2023-05-19T03:39:47.104Z,7.18
2023-05-19T03:42:13.937Z,7.22
2023-05-19T03:44:42.095Z,7.25
2023-05-19T03:47:08.881Z,7.25
2023-05-19T03:49:35.642Z,7.25
2023-05-19T03:52:03.268Z,7.27
2023-05-19T03:54:30.511Z,7.25
2023-05-19T03:56:57.428Z,7.17
2023-05-19T03:59:24.300Z,7.30
2023-05-19T04:01:52.630Z,7.31
2023-05-19T04:04:19.875Z,7.31
2023-05-19T04:06:46.715Z,7.33
2023-05-19T04:09:14.935Z,7.34
2023-05-19T04:11:42.576Z,7.36
2023-05-19T04:14:09.736Z,7.37
2023-05-19T04:16:36.817Z,7.38
2023-05-19T04:19:05.017Z,7.39
2023-05-19T04:21:31.822Z,7.45
2023-05-19T04:23:58.728Z,7.43
2023-05-19T04:26:25.686Z,7.38
2023-05-19T04:28:52.661Z,7.42
2023-05-19T04:31:19.873Z,7.37
2023-05-19T04:33:46.727Z,7.18
2023-05-19T04:36:14.972Z,7.25
2023-05-19T04:38:41.765Z,7.34
2023-05-19T04:41:08.850Z,7.39
2023-05-19T04:43:36.138Z,7.41
2023-05-19T04:46:03.433Z,7.49
2023-05-19T04:48:30.237Z,7.64
2023-05-19T04:50:57.016Z,7.74
2023-05-19T04:53:25.309Z,7.82
2023-05-19T04:55:52.084Z,7.90
2023-05-19T04:58:19.008Z,7.98
2023-05-19T05:00:46.313Z,8.02
2023-05-19T05:03:13.447Z,8.10
2023-05-19T05:05:40.372Z,8.16
2023-05-19T05:08:07.163Z,8.23
2023-05-19T05:10:35.487Z,8.15
2023-05-19T05:13:02.970Z,8.03
2023-05-19T05:15:30.743Z,8.18
2023-05-19T05:17:58.256Z,8.08
2023-05-19T05:20:26.180Z,8.20
2023-05-19T05:22:53.767Z,8.34
2023-05-19T05:25:21.438Z,8.41
2023-05-19T05:27:49.676Z,8.31
2023-05-19T05:30:17.518Z,8.22
2023-05-19T05:32:44.892Z,8.57
2023-05-19T05:35:13.820Z,8.75
2023-05-19T05:37:40.565Z,8.92
2023-05-19T05:40:08.750Z,8.99
2023-05-19T05:42:35.619Z,9.01
2023-05-19T05:45:04.351Z,9.01
2023-05-19T05:47:32.148Z,9.00
2023-05-19T05:49:59.500Z,8.97
2023-05-19T05:52:31.705Z,8.91
2023-05-19T05:54:59.802Z,8.84
2023-05-19T05:57:27.192Z,8.79
2023-05-19T05:59:54.829Z,8.75
2023-05-19T06:02:23.148Z,8.73
2023-05-19T06:04:50.351Z,8.70
2023-05-19T06:07:17.117Z,8.70
2023-05-19T06:09:43.874Z,8.71
2023-05-19T06:12:10.706Z,8.67
2023-05-19T06:14:37.567Z,8.68
2023-05-19T06:17:05.515Z,8.77
2023-05-19T06:19:34.007Z,8.82
2023-05-19T06:22:00.836Z,8.90
2023-05-19T06:24:27.739Z,8.99
2023-05-19T06:26:54.942Z,9.11
2023-05-19T06:29:22.177Z,9.22
2023-05-19T06:31:50.304Z,9.33
2023-05-19T06:34:17.157Z,9.51
2023-05-19T06:36:45.458Z,9.68
2023-05-19T06:39:12.421Z,9.88
2023-05-19T06:41:39.279Z,10.05
2023-05-19T06:44:07.690Z,10.15
2023-05-19T06:46:35.311Z,10.25
2023-05-19T06:49:03.145Z,10.44
2023-05-19T06:51:30.483Z,10.48
2023-05-19T06:53:59.215Z,10.52
2023-05-19T06:56:26.093Z,10.51
2023-05-19T06:58:52.996Z,10.49
2023-05-19T07:01:19.857Z,10.47
2023-05-19T07:03:46.934Z,10.32
2023-05-19T07:06:14.213Z,10.25
2023-05-19T07:08:41.601Z,10.21
2023-05-19T07:11:10.957Z,10.19
2023-05-19T07:13:39.442Z,10.15
2023-05-19T07:16:07.063Z,9.99
2023-05-19T07:18:34.583Z,9.73
2023-05-19T07:21:01.479Z,9.88
2023-05-19T07:23:28.415Z,9.71
2023-05-19T07:25:56.073Z,9.93
2023-05-19T07:28:25.436Z,10.24
2023-05-19T07:30:52.401Z,10.51
2023-05-19T07:33:19.404Z,10.87
2023-05-19T07:35:48.824Z,11.09
2023-05-19T07:38:23.308Z,11.23
2023-05-19T07:40:50.631Z,11.33
2023-05-19T07:43:17.468Z,11.38
2023-05-19T07:45:45.774Z,11.48
2023-05-19T07:48:12.668Z,11.54
2023-05-19T07:50:40.458Z,11.60
2023-05-19T07:53:07.575Z,11.53
2023-05-19T07:55:34.360Z,11.71
2023-05-19T07:58:01.320Z,11.72
2023-05-19T08:00:28.170Z,12.11
2023-05-19T08:02:57.299Z,12.54
2023-05-19T08:05:24.462Z,12.96
2023-05-19T08:07:51.908Z,13.10
2023-05-19T08:10:19.357Z,13.02
2023-05-19T08:12:47.425Z,12.91
2023-05-19T08:15:15.443Z,12.75
2023-05-19T08:17:42.409Z,12.39
2023-05-19T08:20:11.149Z,12.16
2023-05-19T08:22:38.400Z,12.25
2023-05-19T08:25:06.750Z,12.37
2023-05-19T08:27:33.729Z,12.46
2023-05-19T08:30:00.694Z,12.47
2023-05-19T08:32:27.590Z,12.46
2023-05-19T08:34:54.430Z,12.37
2023-05-19T08:37:22.654Z,12.32
2023-05-19T08:39:49.440Z,12.16
2023-05-19T08:42:16.443Z,12.17
2023-05-19T08:44:43.347Z,12.14
2023-05-19T08:47:11.015Z,12.17
2023-05-19T08:49:44.142Z,12.19
2023-05-19T08:52:21.937Z,12.21
2023-05-19T08:55:02.725Z,12.18
2023-05-19T08:57:30.029Z,12.09
2023-05-19T08:59:58.279Z,12.08
2023-05-19T09:02:25.800Z,12.11
2023-05-19T09:04:53.288Z,12.04
2023-05-19T09:07:21.158Z,12.07
2023-05-19T09:09:49.285Z,12.09
2023-05-19T09:12:18.664Z,12.11
2023-05-19T09:14:47.391Z,12.16
2023-05-19T09:17:14.739Z,12.17
2023-05-19T09:19:43.420Z,12.16
2023-05-19T09:22:10.237Z,12.17
2023-05-19T09:24:37.278Z,12.17
2023-05-19T09:27:04.665Z,12.01
2023-05-19T09:29:32.827Z,12.14
2023-05-19T09:31:59.940Z,12.19
2023-05-19T09:34:27.909Z,12.04
2023-05-19T09:36:55.103Z,12.00
2023-05-19T09:39:23.535Z,11.97
2023-05-19T09:41:51.802Z,11.89
2023-05-19T09:44:22.489Z,12.01
2023-05-19T09:46:51.544Z,12.15
2023-05-19T09:49:22.043Z,12.22
2023-05-19T09:51:54.000Z,12.17
2023-05-19T09:54:21.442Z,12.17
2023-05-19T09:56:51.932Z,12.08
2023-05-19T09:59:20.030Z,11.94
2023-05-19T10:01:47.636Z,12.03
2023-05-19T10:04:16.769Z,12.16
2023-05-19T10:06:44.419Z,12.31
2023-05-19T10:09:11.574Z,12.43
2023-05-19T10:11:39.625Z,12.45
2023-05-19T10:14:08.064Z,12.70
2023-05-19T10:16:36.325Z,12.78
2023-05-19T10:19:04.611Z,12.70
2023-05-19T10:21:32.905Z,12.72
2023-05-19T10:23:59.923Z,12.46
2023-05-19T10:26:27.611Z,12.47
2023-05-19T10:28:54.688Z,12.38
2023-05-19T10:31:24.323Z,12.44
2023-05-19T10:34:07.441Z,12.48
2023-05-19T10:36:44.835Z,12.65
2023-05-19T10:39:17.699Z,12.76
2023-05-19T10:42:04.100Z,12.97
2023-05-19T10:44:44.605Z,13.10
2023-05-19T10:47:11.565Z,13.21
2023-05-19T10:49:39.511Z,13.30
2023-05-19T10:52:20.052Z,13.40
2023-05-19T10:54:46.840Z,13.42
2023-05-19T10:57:14.978Z,13.40
2023-05-19T10:59:42.064Z,13.50
2023-05-19T11:02:09.220Z,13.56
2023-05-19T11:04:45.239Z,13.60
2023-05-19T11:07:17.396Z,13.55
2023-05-19T11:09:48.801Z,13.63
2023-05-19T11:12:20.265Z,13.64
2023-05-19T11:14:47.037Z,13.62
2023-05-19T11:17:15.670Z,13.38
2023-05-19T11:19:53.008Z,13.56
2023-05-19T11:22:23.499Z,13.57
2023-05-19T11:24:50.445Z,13.56
2023-05-19T11:27:22.832Z,13.52
2023-05-19T11:29:50.464Z,13.53
2023-05-19T11:32:20.117Z,13.46
2023-05-19T11:34:48.549Z,13.24
2023-05-19T11:37:15.646Z,13.24
2023-05-19T11:39:46.118Z,13.12
2023-05-19T11:42:13.093Z,13.02
2023-05-19T11:44:40.272Z,12.91
2023-05-19T11:47:07.422Z,12.89
2023-05-19T11:49:34.407Z,12.82
2023-05-19T11:52:01.274Z,12.79
2023-05-19T11:54:32.723Z,12.76
2023-05-19T11:57:02.320Z,12.73
2023-05-19T11:59:34.183Z,12.65
2023-05-19T12:02:03.706Z,12.64
2023-05-19T12:04:31.062Z,12.61
2023-05-19T12:06:58.013Z,12.60
2023-05-19T17:03:25.937Z,9.73
2023-05-19T17:05:52.783Z,9.70
2023-05-19T17:08:19.565Z,9.72
2023-05-19T17:10:47.695Z,9.55
2023-05-19T17:13:14.494Z,9.62
2023-05-19T17:15:43.180Z,9.51
2023-05-19T17:18:11.176Z,9.45
2023-05-19T17:20:39.359Z,9.37
2023-05-19T17:23:06.134Z,9.46
2023-05-19T17:25:33.163Z,9.46
2023-05-19T17:28:00.093Z,9.48
2023-05-19T17:30:26.923Z,9.49
2023-05-19T17:32:54.259Z,9.53
2023-05-19T17:35:21.047Z,9.31
2023-05-19T17:37:51.772Z,9.41
2023-05-19T17:40:19.089Z,9.60
2023-05-19T17:42:45.918Z,9.55
2023-05-19T17:45:12.732Z,9.44
2023-05-19T17:47:39.629Z,9.47
2023-05-19T17:50:07.568Z,9.52
2023-05-19T17:52:34.933Z,9.56
2023-05-19T17:55:04.061Z,9.51
2023-05-19T17:57:32.232Z,9.56
2023-05-19T17:59:59.607Z,9.63
2023-05-19T18:02:27.260Z,9.61
2023-05-19T18:04:54.780Z,9.58
2023-05-19T18:07:24.549Z,9.64
2023-05-19T18:09:51.839Z,9.64
2023-05-19T18:12:20.016Z,9.65
2023-05-19T18:14:46.997Z,9.70
2023-05-19T18:17:14.384Z,9.81
2023-05-19T18:19:41.561Z,9.67
2023-05-19T18:22:08.381Z,9.70
2023-05-19T18:24:35.302Z,9.79
2023-05-19T18:27:02.271Z,9.72
2023-05-19T18:29:33.475Z,9.75
2023-05-19T18:32:00.461Z,9.63
2023-05-19T18:34:29.736Z,9.63
2023-05-19T18:36:57.009Z,9.60
2023-05-19T18:39:24.203Z,9.60
2023-05-19T18:41:51.467Z,9.58
2023-05-19T18:44:19.978Z,9.69
2023-05-19T18:46:49.837Z,9.61
2023-05-19T18:49:17.177Z,9.60
2023-05-19T18:51:44.118Z,9.60
2023-05-19T18:54:11.037Z,9.61
2023-05-19T18:56:38.185Z,9.57
2023-05-19T18:59:05.177Z,9.57
2023-05-19T19:01:32.406Z,9.55
2023-05-19T19:04:00.917Z,9.54
2023-05-19T19:06:27.790Z,9.60
2023-05-19T19:08:54.740Z,9.48
2023-05-19T19:11:21.495Z,9.47
2023-05-19T19:13:48.402Z,9.47
2023-05-19T19:16:15.192Z,9.50
2023-05-19T19:18:42.201Z,9.49
2023-05-19T19:21:10.497Z,9.49
2023-05-19T19:23:37.864Z,9.48
2023-05-19T19:26:04.636Z,9.43
2023-05-19T19:28:31.496Z,9.43
2023-05-19T19:30:58.313Z,9.45
2023-05-19T19:33:25.181Z,9.38
2023-05-19T19:35:51.986Z,9.37
2023-05-19T19:38:21.002Z,9.45
2023-05-19T19:40:47.834Z,9.46
2023-05-19T19:43:14.633Z,9.42
2023-05-19T19:45:41.373Z,9.49
2023-05-19T19:48:08.299Z,9.55
2023-05-19T19:50:35.235Z,9.50
2023-05-19T19:53:02.149Z,9.49
2023-05-19T19:55:30.360Z,9.47
2023-05-19T19:57:57.203Z,9.55
2023-05-19T20:00:24.199Z,9.59
2023-05-19T20:03:04.346Z,9.56
2023-05-19T20:05:32.608Z,9.62
2023-05-19T20:07:59.561Z,9.54
2023-05-19T20:10:26.399Z,9.54
2023-05-19T20:12:54.653Z,9.38
2023-05-19T20:15:21.416Z,9.55
2023-05-19T20:17:48.237Z,9.49
2023-05-19T20:20:15.144Z,9.40
2023-05-19T20:22:42.170Z,9.43
2023-05-19T20:25:09.541Z,9.45
2023-05-19T20:27:36.450Z,9.43
2023-05-19T20:30:05.532Z,9.38
2023-05-19T20:32:32.477Z,9.44
2023-05-19T20:34:59.273Z,9.40
2023-05-19T20:37:26.142Z,9.31
2023-05-19T20:39:52.966Z,9.31
2023-05-19T20:42:19.812Z,9.32
2023-05-19T20:44:46.575Z,9.24
2023-05-19T20:47:14.759Z,9.04
2023-05-19T20:49:41.553Z,9.06
2023-05-19T20:52:08.832Z,8.94
2023-05-19T20:54:36.259Z,8.87
2023-05-19T20:57:03.822Z,8.84
2023-05-19T20:59:30.888Z,8.71
2023-05-19T21:01:57.672Z,8.78
2023-05-19T21:04:25.936Z,8.75
2023-05-19T21:06:52.779Z,8.70
2023-05-19T21:09:19.640Z,8.69
2023-05-19T21:11:46.466Z,8.64
2023-05-19T21:14:13.303Z,8.60
2023-05-19T21:16:40.295Z,8.61
2023-05-19T21:19:07.182Z,8.54
2023-05-19T21:21:35.453Z,8.64
2023-05-19T21:24:02.199Z,8.57
2023-05-19T21:26:28.958Z,8.54
2023-05-19T21:28:55.772Z,8.54
2023-05-19T21:31:22.719Z,8.54
2023-05-19T21:33:49.698Z,8.45
2023-05-19T21:36:16.669Z,8.39
2023-05-19T21:38:45.137Z,8.37
2023-05-19T21:41:11.941Z,8.40
2023-05-19T21:43:38.763Z,8.30
2023-05-19T21:46:05.668Z,8.33
2023-05-19T21:48:32.482Z,8.45
2023-05-19T21:50:59.358Z,8.40
2023-05-19T21:53:26.189Z,8.41
2023-05-19T21:55:54.500Z,8.40
2023-05-19T21:58:21.331Z,8.32
2023-05-19T22:00:49.191Z,8.35
2023-05-19T22:03:16.150Z,8.30
2023-05-19T22:05:47.762Z,8.26
2023-05-19T22:08:14.790Z,8.31
2023-05-19T22:10:41.672Z,8.24
2023-05-19T22:13:09.853Z,8.16
2023-05-19T22:15:37.990Z,8.07
2023-05-19T22:18:05.158Z,8.08
2023-05-19T22:20:32.089Z,8.06
2023-05-19T22:22:59.158Z,8.17
2023-05-19T22:25:25.999Z,8.04
2023-05-19T22:27:53.673Z,7.97
2023-05-19T22:30:22.137Z,8.01
2023-05-19T22:32:49.072Z,8.06
2023-05-19T22:35:15.918Z,7.85
2023-05-19T22:37:42.758Z,7.89
2023-05-19T22:40:10.151Z,7.92
2023-05-19T22:42:36.946Z,7.96
2023-05-19T22:45:04.340Z,8.00
2023-05-19T22:47:32.515Z,7.97
2023-05-19T22:49:59.375Z,7.88
2023-05-19T22:52:26.221Z,7.92
2023-05-19T22:54:53.078Z,7.96
2023-05-19T22:57:19.886Z,8.06
2023-05-19T22:59:46.736Z,8.10
2023-05-19T23:02:13.636Z,7.94
2023-05-19T23:04:41.799Z,7.91
2023-05-19T23:07:08.557Z,7.88
2023-05-19T23:09:35.381Z,7.88
2023-05-19T23:12:02.255Z,7.91
2023-05-19T23:14:29.055Z,7.93
2023-05-19T23:16:55.918Z,7.97
2023-05-19T23:19:22.950Z,7.97
2023-05-19T23:21:51.297Z,7.99
2023-05-19T23:24:18.154Z,8.02
2023-05-19T23:26:45.239Z,8.06
2023-05-19T23:29:12.456Z,7.97
2023-05-19T23:31:40.321Z,7.93
2023-05-19T23:34:07.481Z,8.00
2023-05-19T23:36:34.258Z,7.82
2023-05-19T23:39:02.668Z,7.84
2023-05-19T23:41:29.441Z,7.87
2023-05-19T23:43:56.277Z,7.92
2023-05-19T23:46:23.149Z,7.96
2023-05-19T23:48:50.045Z,7.94
2023-05-19T23:51:16.910Z,7.95
2023-05-19T23:53:43.671Z,7.93
2023-05-19T23:56:11.883Z,7.94
2023-05-19T23:58:38.654Z,7.83
